Rechercher aéroport 
image banner adimage banner adimage banner ad
image banner ad

2CA3 - Crosswinds

Situé à Twentynine Palms, United States

ICAO - 2CA3, IATA -

Données fournies par Airmate  

Information générale

Coordonnées: N34°9'36" W115°59'51"
Élévation : 1835 feet MSL.
Variation magnétique : 14° East
Voir autres Aéroports à California

Données opérationnelles

Special qualification required
Heure actuelle UTC:
Heure actuelle locale:
Météo à : KNXP - Twentynine Palms Self ( 21 km )
METAR: KNXP 262256Z 17008G15KT 7SM -RA SCT070TCU SCT150 33/16 A3000 RMK AO2 SLP120 P0000 T03330161
TAF: TAF KNXP 2621/2721 13010KT 9999 VCTS -RA BKN055 QNH2998INS BECMG 2702/2703 20010KT 9999 SCT100 QNH3001INS FM270830 VRB05KT 9999 SKC QNH3004INS BECMG 2720/2721 13010KT 9999 SKC QNH3007INS T33/2623Z T26/2713Z
Voir NOTAMs / SUP AIP / TFR affectant cet aéroport [VIEW]
Fréquences de communication: [VIEW]

Pistes:

Identifiant RWYQFULongueur (ft)Largeur (ft)SurfaceLDA (ft)
092600200EARTH
272600200EARTH
181400200EARTH
361400200EARTH

Coordonnées de l'aéroport

Adresse: Twentynine Palms United States

Vue satellite de 2CA3